sensor_id;sensor_type;location;lat;lon;timestamp;P1;durP1;ratioP1;P2;durP2;ratioP2
56893;SDS011;43392;50.078;13.704;2023-05-07T00:01:28;22.52;;;14.27;;
56893;SDS011;43392;50.078;13.704;2023-05-07T00:03:54;21.75;;;13.80;;
56893;SDS011;43392;50.078;13.704;2023-05-07T00:06:22;24.05;;;14.40;;
56893;SDS011;43392;50.078;13.704;2023-05-07T00:08:49;20.58;;;13.88;;
56893;SDS011;43392;50.078;13.704;2023-05-07T00:11:15;23.48;;;13.98;;
56893;SDS011;43392;50.078;13.704;2023-05-07T00:13:42;24.33;;;15.57;;
56893;SDS011;43392;50.078;13.704;2023-05-07T00:16:09;23.35;;;14.57;;
56893;SDS011;43392;50.078;13.704;2023-05-07T00:18:35;23.45;;;15.55;;
56893;SDS011;43392;50.078;13.704;2023-05-07T00:21:02;23.20;;;15.02;;
56893;SDS011;43392;50.078;13.704;2023-05-07T00:23:30;23.63;;;14.55;;
56893;SDS011;43392;50.078;13.704;2023-05-07T00:25:57;23.58;;;15.68;;
56893;SDS011;43392;50.078;13.704;2023-05-07T00:28:23;25.17;;;16.08;;
56893;SDS011;43392;50.078;13.704;2023-05-07T00:30:50;23.67;;;15.73;;
56893;SDS011;43392;50.078;13.704;2023-05-07T00:33:16;25.88;;;15.25;;
56893;SDS011;43392;50.078;13.704;2023-05-07T00:35:43;24.45;;;15.20;;
56893;SDS011;43392;50.078;13.704;2023-05-07T00:38:10;24.58;;;15.82;;
56893;SDS011;43392;50.078;13.704;2023-05-07T00:40:37;25.98;;;15.63;;
56893;SDS011;43392;50.078;13.704;2023-05-07T00:43:04;24.45;;;15.43;;
56893;SDS011;43392;50.078;13.704;2023-05-07T00:45:32;25.45;;;15.60;;
56893;SDS011;43392;50.078;13.704;2023-05-07T00:48:00;21.75;;;14.60;;
56893;SDS011;43392;50.078;13.704;2023-05-07T00:50:27;25.10;;;15.85;;
56893;SDS011;43392;50.078;13.704;2023-05-07T00:52:54;23.60;;;15.77;;
56893;SDS011;43392;50.078;13.704;2023-05-07T00:55:22;26.38;;;15.88;;
56893;SDS011;43392;50.078;13.704;2023-05-07T00:57:51;23.15;;;15.02;;
56893;SDS011;43392;50.078;13.704;2023-05-07T01:00:18;25.27;;;15.05;;
56893;SDS011;43392;50.078;13.704;2023-05-07T01:02:45;27.60;;;16.02;;
56893;SDS011;43392;50.078;13.704;2023-05-07T01:05:12;26.48;;;15.52;;
56893;SDS011;43392;50.078;13.704;2023-05-07T01:07:41;21.70;;;14.35;;
56893;SDS011;43392;50.078;13.704;2023-05-07T01:10:09;24.75;;;15.35;;
56893;SDS011;43392;50.078;13.704;2023-05-07T01:12:36;28.10;;;15.90;;
56893;SDS011;43392;50.078;13.704;2023-05-07T01:15:07;25.17;;;14.45;;
56893;SDS011;43392;50.078;13.704;2023-05-07T01:17:35;25.35;;;15.40;;
56893;SDS011;43392;50.078;13.704;2023-05-07T01:20:01;22.95;;;14.80;;
56893;SDS011;43392;50.078;13.704;2023-05-07T01:22:31;23.50;;;13.98;;
56893;SDS011;43392;50.078;13.704;2023-05-07T01:24:59;25.00;;;15.57;;
56893;SDS011;43392;50.078;13.704;2023-05-07T01:27:26;23.20;;;15.43;;
56893;SDS011;43392;50.078;13.704;2023-05-07T01:29:53;24.58;;;14.93;;
56893;SDS011;43392;50.078;13.704;2023-05-07T01:32:21;24.90;;;14.68;;
56893;SDS011;43392;50.078;13.704;2023-05-07T01:34:53;25.17;;;15.07;;
56893;SDS011;43392;50.078;13.704;2023-05-07T01:37:21;24.45;;;15.07;;
56893;SDS011;43392;50.078;13.704;2023-05-07T01:39:50;23.13;;;14.57;;
56893;SDS011;43392;50.078;13.704;2023-05-07T01:42:17;24.45;;;15.18;;
56893;SDS011;43392;50.078;13.704;2023-05-07T01:44:43;25.15;;;14.63;;
56893;SDS011;43392;50.078;13.704;2023-05-07T01:47:10;23.83;;;15.18;;
56893;SDS011;43392;50.078;13.704;2023-05-07T01:49:38;26.40;;;15.15;;
56893;SDS011;43392;50.078;13.704;2023-05-07T01:52:05;22.58;;;14.43;;
56893;SDS011;43392;50.078;13.704;2023-05-07T01:54:32;21.35;;;14.57;;
56893;SDS011;43392;50.078;13.704;2023-05-07T01:57:00;24.83;;;14.88;;
56893;SDS011;43392;50.078;13.704;2023-05-07T01:59:27;22.27;;;14.88;;
56893;SDS011;43392;50.078;13.704;2023-05-07T02:01:53;23.80;;;15.38;;
56893;SDS011;43392;50.078;13.704;2023-05-07T02:04:20;23.67;;;15.43;;
56893;SDS011;43392;50.078;13.704;2023-05-07T02:06:46;24.55;;;16.13;;
56893;SDS011;43392;50.078;13.704;2023-05-07T02:09:13;27.20;;;16.25;;
56893;SDS011;43392;50.078;13.704;2023-05-07T02:11:41;25.88;;;17.10;;
56893;SDS011;43392;50.078;13.704;2023-05-07T02:14:09;26.10;;;16.08;;
56893;SDS011;43392;50.078;13.704;2023-05-07T02:16:35;29.38;;;16.92;;
56893;SDS011;43392;50.078;13.704;2023-05-07T02:19:02;28.58;;;16.73;;
56893;SDS011;43392;50.078;13.704;2023-05-07T02:21:28;25.02;;;17.50;;
56893;SDS011;43392;50.078;13.704;2023-05-07T02:23:55;28.70;;;17.90;;
56893;SDS011;43392;50.078;13.704;2023-05-07T02:26:21;25.10;;;16.80;;
56893;SDS011;43392;50.078;13.704;2023-05-07T02:28:48;25.98;;;17.15;;
56893;SDS011;43392;50.078;13.704;2023-05-07T02:31:17;25.73;;;17.13;;
56893;SDS011;43392;50.078;13.704;2023-05-07T02:33:44;26.67;;;17.77;;
56893;SDS011;43392;50.078;13.704;2023-05-07T02:36:11;30.80;;;17.70;;
56893;SDS011;43392;50.078;13.704;2023-05-07T02:38:38;28.55;;;17.92;;
56893;SDS011;43392;50.078;13.704;2023-05-07T02:41:05;27.60;;;17.27;;
56893;SDS011;43392;50.078;13.704;2023-05-07T02:43:31;28.88;;;17.98;;
56893;SDS011;43392;50.078;13.704;2023-05-07T02:46:01;24.00;;;16.50;;
56893;SDS011;43392;50.078;13.704;2023-05-07T02:48:30;28.58;;;17.20;;
56893;SDS011;43392;50.078;13.704;2023-05-07T02:50:57;25.75;;;16.58;;
56893;SDS011;43392;50.078;13.704;2023-05-07T02:53:24;24.45;;;16.15;;
56893;SDS011;43392;50.078;13.704;2023-05-07T02:55:51;27.67;;;16.42;;
56893;SDS011;43392;50.078;13.704;2023-05-07T02:58:18;28.15;;;17.33;;
56893;SDS011;43392;50.078;13.704;2023-05-07T03:00:45;27.00;;;17.63;;
56893;SDS011;43392;50.078;13.704;2023-05-07T03:03:12;26.67;;;17.73;;
56893;SDS011;43392;50.078;13.704;2023-05-07T03:05:40;27.55;;;18.33;;
56893;SDS011;43392;50.078;13.704;2023-05-07T03:08:07;26.23;;;17.52;;
56893;SDS011;43392;50.078;13.704;2023-05-07T03:10:34;24.63;;;16.10;;
56893;SDS011;43392;50.078;13.704;2023-05-07T03:13:01;26.77;;;17.10;;
56893;SDS011;43392;50.078;13.704;2023-05-07T03:15:28;27.27;;;17.00;;
56893;SDS011;43392;50.078;13.704;2023-05-07T03:17:54;26.58;;;16.27;;
56893;SDS011;43392;50.078;13.704;2023-05-07T03:20:21;26.85;;;17.25;;
56893;SDS011;43392;50.078;13.704;2023-05-07T03:22:49;29.40;;;18.88;;
56893;SDS011;43392;50.078;13.704;2023-05-07T03:25:16;25.17;;;16.27;;
56893;SDS011;43392;50.078;13.704;2023-05-07T03:27:42;25.20;;;16.45;;
56893;SDS011;43392;50.078;13.704;2023-05-07T03:30:09;28.35;;;16.85;;
56893;SDS011;43392;50.078;13.704;2023-05-07T03:32:37;24.27;;;16.63;;
56893;SDS011;43392;50.078;13.704;2023-05-07T03:35:04;26.35;;;17.00;;
56893;SDS011;43392;50.078;13.704;2023-05-07T03:37:31;23.33;;;16.48;;
56893;SDS011;43392;50.078;13.704;2023-05-07T03:39:59;23.02;;;15.15;;
56893;SDS011;43392;50.078;13.704;2023-05-07T03:42:26;25.10;;;15.73;;
56893;SDS011;43392;50.078;13.704;2023-05-07T03:44:52;26.90;;;16.75;;
56893;SDS011;43392;50.078;13.704;2023-05-07T03:47:19;26.27;;;15.77;;
56893;SDS011;43392;50.078;13.704;2023-05-07T03:49:45;24.00;;;16.00;;
56893;SDS011;43392;50.078;13.704;2023-05-07T03:52:13;26.02;;;16.38;;
56893;SDS011;43392;50.078;13.704;2023-05-07T03:54:39;25.38;;;16.35;;
56893;SDS011;43392;50.078;13.704;2023-05-07T03:57:07;27.83;;;16.23;;
56893;SDS011;43392;50.078;13.704;2023-05-07T03:59:34;25.75;;;15.75;;
56893;SDS011;43392;50.078;13.704;2023-05-07T04:02:00;25.73;;;16.73;;
56893;SDS011;43392;50.078;13.704;2023-05-07T04:04:27;23.67;;;16.20;;
56893;SDS011;43392;50.078;13.704;2023-05-07T04:06:57;24.45;;;16.25;;
56893;SDS011;43392;50.078;13.704;2023-05-07T04:09:24;25.83;;;16.70;;
56893;SDS011;43392;50.078;13.704;2023-05-07T04:11:51;23.45;;;15.73;;
56893;SDS011;43392;50.078;13.704;2023-05-07T04:14:22;24.47;;;15.40;;
56893;SDS011;43392;50.078;13.704;2023-05-07T04:16:49;24.98;;;15.27;;
56893;SDS011;43392;50.078;13.704;2023-05-07T04:19:15;25.67;;;15.52;;
56893;SDS011;43392;50.078;13.704;2023-05-07T04:21:42;25.40;;;15.70;;
56893;SDS011;43392;50.078;13.704;2023-05-07T04:24:09;23.90;;;15.55;;
56893;SDS011;43392;50.078;13.704;2023-05-07T04:26:36;22.33;;;14.60;;
56893;SDS011;43392;50.078;13.704;2023-05-07T04:29:02;24.40;;;15.23;;
56893;SDS011;43392;50.078;13.704;2023-05-07T04:31:30;23.65;;;15.55;;
56893;SDS011;43392;50.078;13.704;2023-05-07T04:33:57;21.92;;;14.15;;
56893;SDS011;43392;50.078;13.704;2023-05-07T04:36:23;25.77;;;14.70;;
56893;SDS011;43392;50.078;13.704;2023-05-07T04:38:52;21.63;;;14.40;;
56893;SDS011;43392;50.078;13.704;2023-05-07T04:41:19;24.05;;;14.25;;
56893;SDS011;43392;50.078;13.704;2023-05-07T04:43:45;21.63;;;13.40;;
56893;SDS011;43392;50.078;13.704;2023-05-07T04:46:12;24.70;;;14.93;;
56893;SDS011;43392;50.078;13.704;2023-05-07T04:48:40;22.55;;;13.60;;
56893;SDS011;43392;50.078;13.704;2023-05-07T04:51:06;22.75;;;14.80;;
56893;SDS011;43392;50.078;13.704;2023-05-07T04:53:33;22.67;;;14.55;;
56893;SDS011;43392;50.078;13.704;2023-05-07T04:56:00;21.48;;;13.65;;
56893;SDS011;43392;50.078;13.704;2023-05-07T04:58:26;22.13;;;13.63;;
56893;SDS011;43392;50.078;13.704;2023-05-07T05:00:56;22.73;;;13.93;;
56893;SDS011;43392;50.078;13.704;2023-05-07T05:03:23;23.17;;;13.82;;
56893;SDS011;43392;50.078;13.704;2023-05-07T05:05:51;19.45;;;12.18;;
56893;SDS011;43392;50.078;13.704;2023-05-07T05:08:18;21.88;;;13.38;;
56893;SDS011;43392;50.078;13.704;2023-05-07T05:10:45;16.50;;;10.73;;
56893;SDS011;43392;50.078;13.704;2023-05-07T05:13:13;20.05;;;10.77;;
56893;SDS011;43392;50.078;13.704;2023-05-07T05:15:40;19.45;;;10.90;;
56893;SDS011;43392;50.078;13.704;2023-05-07T05:18:06;18.55;;;11.25;;
56893;SDS011;43392;50.078;13.704;2023-05-07T05:20:33;16.02;;;10.10;;
56893;SDS011;43392;50.078;13.704;2023-05-07T05:23:01;18.13;;;10.90;;
56893;SDS011;43392;50.078;13.704;2023-05-07T05:25:28;18.85;;;11.95;;
56893;SDS011;43392;50.078;13.704;2023-05-07T05:27:54;17.35;;;9.95;;
56893;SDS011;43392;50.078;13.704;2023-05-07T05:30:21;16.75;;;10.35;;
56893;SDS011;43392;50.078;13.704;2023-05-07T05:32:48;16.95;;;10.15;;
56893;SDS011;43392;50.078;13.704;2023-05-07T05:35:14;16.42;;;10.43;;
56893;SDS011;43392;50.078;13.704;2023-05-07T05:37:41;16.13;;;10.20;;
56893;SDS011;43392;50.078;13.704;2023-05-07T05:40:10;16.88;;;10.90;;
56893;SDS011;43392;50.078;13.704;2023-05-07T05:42:37;16.40;;;9.88;;
56893;SDS011;43392;50.078;13.704;2023-05-07T05:45:04;15.55;;;10.18;;
56893;SDS011;43392;50.078;13.704;2023-05-07T05:47:31;16.83;;;9.93;;
56893;SDS011;43392;50.078;13.704;2023-05-07T05:49:58;16.38;;;10.35;;
56893;SDS011;43392;50.078;13.704;2023-05-07T05:52:24;17.15;;;11.32;;
56893;SDS011;43392;50.078;13.704;2023-05-07T05:54:51;18.00;;;10.50;;
56893;SDS011;43392;50.078;13.704;2023-05-07T05:57:19;19.92;;;11.43;;
56893;SDS011;43392;50.078;13.704;2023-05-07T05:59:46;19.00;;;11.30;;
56893;SDS011;43392;50.078;13.704;2023-05-07T06:02:13;17.48;;;11.35;;
56893;SDS011;43392;50.078;13.704;2023-05-07T06:04:40;18.38;;;11.55;;
56893;SDS011;43392;50.078;13.704;2023-05-07T06:07:07;18.73;;;11.00;;
56893;SDS011;43392;50.078;13.704;2023-05-07T06:09:34;17.85;;;11.15;;
56893;SDS011;43392;50.078;13.704;2023-05-07T06:12:00;15.80;;;10.07;;
56893;SDS011;43392;50.078;13.704;2023-05-07T06:14:28;17.15;;;11.45;;
56893;SDS011;43392;50.078;13.704;2023-05-07T06:16:55;16.17;;;9.70;;
56893;SDS011;43392;50.078;13.704;2023-05-07T06:19:21;15.18;;;9.57;;
56893;SDS011;43392;50.078;13.704;2023-05-07T06:21:49;15.80;;;9.93;;
56893;SDS011;43392;50.078;13.704;2023-05-07T06:24:15;17.23;;;10.18;;
56893;SDS011;43392;50.078;13.704;2023-05-07T06:26:42;16.77;;;10.00;;
56893;SDS011;43392;50.078;13.704;2023-05-07T06:29:08;16.17;;;10.02;;
56893;SDS011;43392;50.078;13.704;2023-05-07T06:31:36;16.35;;;10.63;;
56893;SDS011;43392;50.078;13.704;2023-05-07T06:34:03;17.40;;;11.13;;
56893;SDS011;43392;50.078;13.704;2023-05-07T06:36:30;16.35;;;10.00;;
56893;SDS011;43392;50.078;13.704;2023-05-07T06:38:56;16.80;;;10.27;;
56893;SDS011;43392;50.078;13.704;2023-05-07T06:41:23;18.15;;;10.60;;
56893;SDS011;43392;50.078;13.704;2023-05-07T06:43:50;18.08;;;10.80;;
56893;SDS011;43392;50.078;13.704;2023-05-07T06:46:17;17.15;;;9.70;;
56893;SDS011;43392;50.078;13.704;2023-05-07T06:48:45;16.30;;;10.38;;
56893;SDS011;43392;50.078;13.704;2023-05-07T06:51:12;15.85;;;9.57;;
56893;SDS011;43392;50.078;13.704;2023-05-07T06:53:38;18.05;;;9.70;;
56893;SDS011;43392;50.078;13.704;2023-05-07T06:56:05;15.63;;;9.40;;
56893;SDS011;43392;50.078;13.704;2023-05-07T06:58:32;16.38;;;9.55;;
56893;SDS011;43392;50.078;13.704;2023-05-07T07:00:59;15.55;;;8.60;;
56893;SDS011;43392;50.078;13.704;2023-05-07T07:03:25;13.73;;;8.45;;
56893;SDS011;43392;50.078;13.704;2023-05-07T07:05:54;15.60;;;9.77;;
56893;SDS011;43392;50.078;13.704;2023-05-07T07:08:21;15.82;;;8.98;;
56893;SDS011;43392;50.078;13.704;2023-05-07T07:10:48;16.08;;;8.85;;
56893;SDS011;43392;50.078;13.704;2023-05-07T07:13:15;14.38;;;8.85;;
56893;SDS011;43392;50.078;13.704;2023-05-07T07:15:41;14.68;;;8.50;;
56893;SDS011;43392;50.078;13.704;2023-05-07T07:18:10;12.32;;;7.72;;
56893;SDS011;43392;50.078;13.704;2023-05-07T07:20:36;13.20;;;8.07;;
56893;SDS011;43392;50.078;13.704;2023-05-07T07:23:04;13.25;;;8.25;;
56893;SDS011;43392;50.078;13.704;2023-05-07T07:25:31;15.05;;;8.82;;
56893;SDS011;43392;50.078;13.704;2023-05-07T07:27:57;12.95;;;8.05;;
56893;SDS011;43392;50.078;13.704;2023-05-07T07:30:24;16.13;;;8.60;;
56893;SDS011;43392;50.078;13.704;2023-05-07T07:32:51;15.48;;;8.40;;
56893;SDS011;43392;50.078;13.704;2023-05-07T07:35:18;13.90;;;8.45;;
56893;SDS011;43392;50.078;13.704;2023-05-07T07:37:44;11.95;;;7.78;;
56893;SDS011;43392;50.078;13.704;2023-05-07T07:40:13;12.98;;;7.90;;
56893;SDS011;43392;50.078;13.704;2023-05-07T07:42:40;11.80;;;7.90;;
56893;SDS011;43392;50.078;13.704;2023-05-07T07:45:07;14.13;;;7.85;;
56893;SDS011;43392;50.078;13.704;2023-05-07T07:47:34;13.02;;;7.70;;
56893;SDS011;43392;50.078;13.704;2023-05-07T07:50:01;11.82;;;7.93;;
56893;SDS011;43392;50.078;13.704;2023-05-07T07:52:27;13.07;;;8.30;;
56893;SDS011;43392;50.078;13.704;2023-05-07T07:54:54;14.75;;;8.90;;
56893;SDS011;43392;50.078;13.704;2023-05-07T07:57:22;13.52;;;8.73;;
56893;SDS011;43392;50.078;13.704;2023-05-07T07:59:49;12.93;;;7.45;;
56893;SDS011;43392;50.078;13.704;2023-05-07T08:02:15;14.05;;;7.88;;
56893;SDS011;43392;50.078;13.704;2023-05-07T08:04:42;11.90;;;7.70;;
56893;SDS011;43392;50.078;13.704;2023-05-07T08:07:09;15.07;;;8.45;;
56893;SDS011;43392;50.078;13.704;2023-05-07T08:09:36;13.88;;;8.30;;
56893;SDS011;43392;50.078;13.704;2023-05-07T08:12:03;13.45;;;7.88;;
56893;SDS011;43392;50.078;13.704;2023-05-07T08:14:32;12.98;;;7.63;;
56893;SDS011;43392;50.078;13.704;2023-05-07T08:16:59;12.60;;;7.80;;
56893;SDS011;43392;50.078;13.704;2023-05-07T08:19:25;14.20;;;8.15;;
56893;SDS011;43392;50.078;13.704;2023-05-07T08:21:52;13.40;;;7.60;;
56893;SDS011;43392;50.078;13.704;2023-05-07T08:24:19;12.38;;;8.00;;
56893;SDS011;43392;50.078;13.704;2023-05-07T08:26:46;12.43;;;8.48;;
56893;SDS011;43392;50.078;13.704;2023-05-07T08:29:12;12.80;;;7.28;;
56893;SDS011;43392;50.078;13.704;2023-05-07T08:31:40;11.40;;;6.95;;
56893;SDS011;43392;50.078;13.704;2023-05-07T08:34:07;11.65;;;6.78;;
56893;SDS011;43392;50.078;13.704;2023-05-07T08:36:33;12.95;;;7.07;;
56893;SDS011;43392;50.078;13.704;2023-05-07T08:39:00;11.77;;;7.35;;
56893;SDS011;43392;50.078;13.704;2023-05-07T08:41:27;11.70;;;6.72;;
56893;SDS011;43392;50.078;13.704;2023-05-07T08:43:54;10.63;;;6.70;;
56893;SDS011;43392;50.078;13.704;2023-05-07T08:46:25;11.10;;;6.80;;
56893;SDS011;43392;50.078;13.704;2023-05-07T08:48:58;13.23;;;6.72;;
56893;SDS011;43392;50.078;13.704;2023-05-07T08:51:25;12.55;;;6.88;;
56893;SDS011;43392;50.078;13.704;2023-05-07T08:53:52;11.80;;;7.10;;
56893;SDS011;43392;50.078;13.704;2023-05-07T08:56:18;11.13;;;6.68;;
56893;SDS011;43392;50.078;13.704;2023-05-07T08:58:46;10.98;;;6.97;;
56893;SDS011;43392;50.078;13.704;2023-05-07T09:01:14;12.98;;;6.93;;
56893;SDS011;43392;50.078;13.704;2023-05-07T09:03:43;11.63;;;6.30;;
56893;SDS011;43392;50.078;13.704;2023-05-07T09:06:13;11.70;;;6.43;;
56893;SDS011;43392;50.078;13.704;2023-05-07T09:08:39;10.80;;;6.68;;
56893;SDS011;43392;50.078;13.704;2023-05-07T09:11:06;10.95;;;6.53;;
56893;SDS011;43392;50.078;13.704;2023-05-07T09:13:33;10.07;;;6.15;;
56893;SDS011;43392;50.078;13.704;2023-05-07T09:16:08;8.48;;;5.45;;
56893;SDS011;43392;50.078;13.704;2023-05-07T09:18:40;10.05;;;5.70;;
56893;SDS011;43392;50.078;13.704;2023-05-07T09:21:09;10.30;;;6.03;;
56893;SDS011;43392;50.078;13.704;2023-05-07T09:23:38;9.15;;;5.60;;
56893;SDS011;43392;50.078;13.704;2023-05-07T09:26:05;10.00;;;5.80;;
56893;SDS011;43392;50.078;13.704;2023-05-07T09:28:37;10.25;;;6.28;;
56893;SDS011;43392;50.078;13.704;2023-05-07T09:31:04;10.32;;;5.95;;
56893;SDS011;43392;50.078;13.704;2023-05-07T09:33:31;9.50;;;5.75;;
56893;SDS011;43392;50.078;13.704;2023-05-07T09:35:58;9.38;;;6.22;;
56893;SDS011;43392;50.078;13.704;2023-05-07T09:38:24;9.00;;;5.38;;
56893;SDS011;43392;50.078;13.704;2023-05-07T09:41:02;9.77;;;6.15;;
56893;SDS011;43392;50.078;13.704;2023-05-07T09:43:31;15.30;;;5.80;;
56893;SDS011;43392;50.078;13.704;2023-05-07T09:45:58;9.77;;;6.10;;
56893;SDS011;43392;50.078;13.704;2023-05-07T09:48:29;9.63;;;6.13;;
56893;SDS011;43392;50.078;13.704;2023-05-07T09:50:56;9.13;;;5.35;;
56893;SDS011;43392;50.078;13.704;2023-05-07T09:53:28;9.30;;;5.80;;
56893;SDS011;43392;50.078;13.704;2023-05-07T09:55:56;9.30;;;5.50;;
56893;SDS011;43392;50.078;13.704;2023-05-07T09:58:24;9.60;;;5.68;;
56893;SDS011;43392;50.078;13.704;2023-05-07T10:00:52;9.52;;;6.05;;
56893;SDS011;43392;50.078;13.704;2023-05-07T10:03:19;8.45;;;5.22;;
56893;SDS011;43392;50.078;13.704;2023-05-07T10:05:47;8.80;;;5.35;;
56893;SDS011;43392;50.078;13.704;2023-05-07T10:08:16;8.52;;;5.45;;
56893;SDS011;43392;50.078;13.704;2023-05-07T10:10:45;31.73;;;21.42;;
56893;SDS011;43392;50.078;13.704;2023-05-07T10:13:12;7.50;;;4.65;;
56893;SDS011;43392;50.078;13.704;2023-05-07T10:15:40;8.48;;;5.28;;
56893;SDS011;43392;50.078;13.704;2023-05-07T10:18:07;7.65;;;4.57;;
56893;SDS011;43392;50.078;13.704;2023-05-07T10:20:35;7.55;;;4.28;;
56893;SDS011;43392;50.078;13.704;2023-05-07T10:23:03;7.70;;;4.68;;
56893;SDS011;43392;50.078;13.704;2023-05-07T10:25:31;7.57;;;4.93;;
56893;SDS011;43392;50.078;13.704;2023-05-07T10:27:59;8.23;;;4.80;;
56893;SDS011;43392;50.078;13.704;2023-05-07T10:30:32;6.70;;;4.07;;
56893;SDS011;43392;50.078;13.704;2023-05-07T10:33:08;6.38;;;4.03;;
56893;SDS011;43392;50.078;13.704;2023-05-07T10:35:40;7.00;;;4.10;;
56893;SDS011;43392;50.078;13.704;2023-05-07T10:38:08;7.25;;;4.22;;
56893;SDS011;43392;50.078;13.704;2023-05-07T10:40:35;6.88;;;4.07;;
56893;SDS011;43392;50.078;13.704;2023-05-07T10:43:03;6.85;;;4.15;;
56893;SDS011;43392;50.078;13.704;2023-05-07T10:45:31;6.45;;;4.03;;
56893;SDS011;43392;50.078;13.704;2023-05-07T10:48:09;6.38;;;3.67;;
56893;SDS011;43392;50.078;13.704;2023-05-07T10:50:37;5.88;;;3.55;;
56893;SDS011;43392;50.078;13.704;2023-05-07T10:53:23;5.65;;;3.50;;
56893;SDS011;43392;50.078;13.704;2023-05-07T10:58:51;6.43;;;3.70;;
56893;SDS011;43392;50.078;13.704;2023-05-07T11:01:26;5.05;;;3.10;;
56893;SDS011;43392;50.078;13.704;2023-05-07T11:04:18;5.63;;;3.33;;
56893;SDS011;43392;50.078;13.704;2023-05-07T11:10:03;6.80;;;3.80;;
56893;SDS011;43392;50.078;13.704;2023-05-07T11:12:46;6.88;;;3.95;;
56893;SDS011;43392;50.078;13.704;2023-05-07T11:15:33;7.47;;;4.10;;
56893;SDS011;43392;50.078;13.704;2023-05-07T11:18:01;6.60;;;3.55;;
56893;SDS011;43392;50.078;13.704;2023-05-07T11:23:54;6.93;;;4.03;;
56893;SDS011;43392;50.078;13.704;2023-05-07T11:26:22;6.55;;;4.32;;
56893;SDS011;43392;50.078;13.704;2023-05-07T11:28:50;6.93;;;4.13;;
56893;SDS011;43392;50.078;13.704;2023-05-07T11:31:20;7.05;;;4.03;;
56893;SDS011;43392;50.078;13.704;2023-05-07T11:36:16;7.38;;;4.45;;
56893;SDS011;43392;50.078;13.704;2023-05-07T11:38:44;7.45;;;4.40;;
56893;SDS011;43392;50.078;13.704;2023-05-07T11:41:10;8.07;;;4.78;;
56893;SDS011;43392;50.078;13.704;2023-05-07T11:43:37;8.73;;;4.80;;
56893;SDS011;43392;50.078;13.704;2023-05-07T11:46:05;6.45;;;4.10;;
56893;SDS011;43392;50.078;13.704;2023-05-07T11:48:34;5.05;;;3.30;;
56893;SDS011;43392;50.078;13.704;2023-05-07T11:51:01;5.45;;;3.30;;
56893;SDS011;43392;50.078;13.704;2023-05-07T11:53:36;6.93;;;3.72;;
56893;SDS011;43392;50.078;13.704;2023-05-07T11:56:06;5.97;;;3.25;;
56893;SDS011;43392;50.078;13.704;2023-05-07T11:58:34;6.25;;;3.90;;
56893;SDS011;43392;50.078;13.704;2023-05-07T12:01:01;7.35;;;4.05;;
56893;SDS011;43392;50.078;13.704;2023-05-07T12:03:27;5.82;;;3.78;;
56893;SDS011;43392;50.078;13.704;2023-05-07T12:05:54;7.03;;;4.43;;
56893;SDS011;43392;50.078;13.704;2023-05-07T12:08:21;7.15;;;4.85;;
56893;SDS011;43392;50.078;13.704;2023-05-07T12:10:49;7.18;;;4.50;;
56893;SDS011;43392;50.078;13.704;2023-05-07T12:13:17;7.07;;;4.85;;
56893;SDS011;43392;50.078;13.704;2023-05-07T12:15:45;8.95;;;5.35;;
56893;SDS011;43392;50.078;13.704;2023-05-07T12:18:12;7.18;;;4.80;;
56893;SDS011;43392;50.078;13.704;2023-05-07T12:20:39;8.35;;;4.90;;
56893;SDS011;43392;50.078;13.704;2023-05-07T12:23:06;10.23;;;5.63;;
56893;SDS011;43392;50.078;13.704;2023-05-07T12:25:34;8.30;;;5.38;;
56893;SDS011;43392;50.078;13.704;2023-05-07T12:28:03;10.45;;;6.10;;
56893;SDS011;43392;50.078;13.704;2023-05-07T12:30:30;8.88;;;5.97;;
56893;SDS011;43392;50.078;13.704;2023-05-07T12:32:57;9.55;;;6.30;;
56893;SDS011;43392;50.078;13.704;2023-05-07T12:35:27;8.77;;;5.97;;
56893;SDS011;43392;50.078;13.704;2023-05-07T12:37:54;8.90;;;5.97;;
56893;SDS011;43392;50.078;13.704;2023-05-07T12:40:21;8.32;;;6.00;;
56893;SDS011;43392;50.078;13.704;2023-05-07T12:42:48;8.98;;;6.38;;
56893;SDS011;43392;50.078;13.704;2023-05-07T12:45:21;9.82;;;7.07;;
56893;SDS011;43392;50.078;13.704;2023-05-07T12:47:48;11.77;;;7.28;;
56893;SDS011;43392;50.078;13.704;2023-05-07T12:50:15;11.20;;;7.20;;
56893;SDS011;43392;50.078;13.704;2023-05-07T12:52:42;9.32;;;7.05;;
56893;SDS011;43392;50.078;13.704;2023-05-07T12:55:12;12.18;;;7.53;;
56893;SDS011;43392;50.078;13.704;2023-05-07T12:57:40;9.73;;;7.55;;
56893;SDS011;43392;50.078;13.704;2023-05-07T13:00:09;8.93;;;6.90;;
56893;SDS011;43392;50.078;13.704;2023-05-07T13:02:38;9.35;;;6.93;;
56893;SDS011;43392;50.078;13.704;2023-05-07T13:05:07;9.50;;;7.03;;
56893;SDS011;43392;50.078;13.704;2023-05-07T13:07:34;9.25;;;6.88;;
56893;SDS011;43392;50.078;13.704;2023-05-07T13:10:01;9.80;;;6.82;;
56893;SDS011;43392;50.078;13.704;2023-05-07T13:12:28;9.52;;;6.85;;
56893;SDS011;43392;50.078;13.704;2023-05-07T13:14:55;8.70;;;6.30;;
56893;SDS011;43392;50.078;13.704;2023-05-07T13:17:22;10.05;;;5.55;;
56893;SDS011;43392;50.078;13.704;2023-05-07T13:19:50;7.43;;;5.13;;
56893;SDS011;43392;50.078;13.704;2023-05-07T13:22:17;8.35;;;5.60;;
56893;SDS011;43392;50.078;13.704;2023-05-07T13:24:43;8.48;;;5.70;;
56893;SDS011;43392;50.078;13.704;2023-05-07T13:27:10;8.75;;;5.22;;
56893;SDS011;43392;50.078;13.704;2023-05-07T13:29:36;9.98;;;5.35;;
56893;SDS011;43392;50.078;13.704;2023-05-07T13:32:03;6.50;;;4.47;;
56893;SDS011;43392;50.078;13.704;2023-05-07T13:34:30;8.00;;;5.00;;
56893;SDS011;43392;50.078;13.704;2023-05-07T13:36:58;6.80;;;4.63;;
56893;SDS011;43392;50.078;13.704;2023-05-07T13:39:25;6.60;;;4.40;;
56893;SDS011;43392;50.078;13.704;2023-05-07T13:41:51;8.77;;;5.40;;
56893;SDS011;43392;50.078;13.704;2023-05-07T13:44:18;7.35;;;4.88;;
56893;SDS011;43392;50.078;13.704;2023-05-07T13:46:44;7.63;;;5.07;;
56893;SDS011;43392;50.078;13.704;2023-05-07T13:49:11;7.82;;;5.10;;
56893;SDS011;43392;50.078;13.704;2023-05-07T13:51:38;7.53;;;4.85;;
56893;SDS011;43392;50.078;13.704;2023-05-07T13:54:06;6.50;;;4.65;;
56893;SDS011;43392;50.078;13.704;2023-05-07T13:56:32;7.07;;;4.63;;
56893;SDS011;43392;50.078;13.704;2023-05-07T13:58:59;7.78;;;4.95;;
56893;SDS011;43392;50.078;13.704;2023-05-07T14:01:25;7.25;;;5.00;;
56893;SDS011;43392;50.078;13.704;2023-05-07T14:03:52;14.70;;;5.55;;
56893;SDS011;43392;50.078;13.704;2023-05-07T14:06:19;6.75;;;4.63;;
56893;SDS011;43392;50.078;13.704;2023-05-07T14:08:46;13.75;;;5.63;;
56893;SDS011;43392;50.078;13.704;2023-05-07T14:11:14;7.40;;;4.68;;
56893;SDS011;43392;50.078;13.704;2023-05-07T14:13:41;12.65;;;4.57;;
56893;SDS011;43392;50.078;13.704;2023-05-07T14:16:08;7.82;;;4.78;;
56893;SDS011;43392;50.078;13.704;2023-05-07T14:18:34;6.95;;;4.25;;
56893;SDS011;43392;50.078;13.704;2023-05-07T14:21:02;8.50;;;4.78;;
56893;SDS011;43392;50.078;13.704;2023-05-07T14:23:28;9.27;;;5.13;;
56893;SDS011;43392;50.078;13.704;2023-05-07T14:25:55;8.18;;;4.63;;
56893;SDS011;43392;50.078;13.704;2023-05-07T14:28:23;11.02;;;5.15;;
56893;SDS011;43392;50.078;13.704;2023-05-07T14:30:50;8.48;;;4.82;;
56893;SDS011;43392;50.078;13.704;2023-05-07T14:33:17;8.77;;;5.20;;